• Join FlightAware (Why Join?)
  • Login
  • US Flag 
08:54PM EDT


 

Airport Tracker/Info


-or-


 

Live Flight TrackerFlight Track Log ✈ N830QS ✈ 24-Jun-2013 ✈ KMSO - KAPC

Flight Track Log - Related Links

Times and Time Zones

All times are in EDT time to prevent confusion due to time zone crossing. See the N830QS flight status page for this flight to view local times or setup timezone preferences in your user account.

Time Position Orientation Groundspeed Altitude Reporting Facility
EDT Latitude Longitude Course Direction KTS MPH feet Rate Location/Type
03:51PM 46.9594 -114.1708 215° Southwest 194 223 8,200  Level Salt Lake Center
03:53PM 46.9247 -114.2431 235° Southwest 219 252 11,900 3,540 Climbing Salt Lake Center
03:54PM 46.8644 -114.2792 202° Southwest 236 272 15,600 2,880 Climbing Salt Lake Center
03:55PM 46.7881 -114.3261 203° Southwest 283 326 17,900 2,220 Climbing Salt Lake Center
03:56PM 46.7106 -114.3717 202° Southwest 300 345 20,200 1,560 Climbing Salt Lake Center
03:57PM 46.4923 -114.5634 215° Southwest  Level Estimated
03:57PM 46.6408 -114.4150 203° Southwest 317 365 21,200  Level Salt Lake Center
03:58PM 46.5403 -114.4772 203° Southwest 328 377 22,900 1,380 Climbing Salt Lake Center
03:59PM 46.4578 -114.5267 202° Southwest 323 372 24,100 1,260 Climbing Salt Lake Center
04:00PM 46.3739 -114.5772 203° Southwest 327 376 25,600 1,440 Climbing Salt Lake Center
04:01PM 46.2844 -114.6317 203° Southwest 347 399 27,100 1,500 Climbing Salt Lake Center
04:02PM 46.1931 -114.6858 202° Southwest 356 410 28,700 1,860 Climbing Salt Lake Center
04:03PM 46.0911 -114.7489 203° Southwest 350 403 31,000 2,040 Climbing Salt Lake Center
04:04PM 46.0217 -114.7900 202° Southwest 342 394 32,500 1,800 Climbing Salt Lake Center
04:05PM 45.9403 -114.8375 202° Southwest 333 383 34,400 1,860 Climbing Salt Lake Center
04:06PM 45.8492 -114.8908 202° Southwest 320 368 36,400 1,740 Climbing Salt Lake Center
04:07PM 45.7744 -114.9358 203° Southwest 310 357 38,000 780 Climbing Salt Lake Center
04:08PM 45.6819 -114.9914 203° Southwest 318 366 38,000  Level Salt Lake Center
04:09PM 45.6069 -115.0728 217° Southwest 344 396 38,000  Level Salt Lake Center
04:10PM 45.5203 -115.1739 219° Southwest 358 412 38,000  Level Salt Lake Center
04:11PM 45.4469 -115.2569 218° Southwest 354 407 38,000  Level Salt Lake Center
04:12PM 45.3750 -115.3356 218° Southwest 344 396 38,000  Level Salt Lake Center
04:13PM 45.3044 -115.4167 219° Southwest 342 394 38,000  Level Salt Lake Center
04:14PM 45.2339 -115.4931 217° Southwest 335 386 38,000  Level Salt Lake Center
04:15PM 45.1639 -115.5722 219° Southwest 337 388 38,000  Level Salt Lake Center
04:16PM 45.0819 -115.6628 218° Southwest 334 384 38,000  Level Salt Lake Center
04:17PM 45.0114 -115.7411 218° Southwest 337 388 38,000  Level Salt Lake Center
04:18PM 44.9292 -115.8339 219° Southwest 339 390 38,000  Level Salt Lake Center
04:19PM 44.8581 -115.9108 217° Southwest 338 389 38,000  Level Salt Lake Center
04:20PM 44.7764 -116.0011 218° Southwest 336 387 38,000  Level Salt Lake Center
04:21PM 44.7056 -116.0789 218° Southwest 337 388 38,000  Level Salt Lake Center
04:22PM 44.6222 -116.1686 217° Southwest 338 389 38,000  Level Salt Lake Center
04:23PM 44.5519 -116.2458 218° Southwest 339 390 38,000  Level Salt Lake Center
04:24PM 44.4686 -116.3333 217° Southwest 341 392 38,000  Level Salt Lake Center
04:25PM 44.3972 -116.4094 217° Southwest 341 392 38,000  Level Salt Lake Center
04:26PM 44.3142 -116.4983 217° Southwest 339 390 38,000  Level Salt Lake Center
04:27PM 44.2425 -116.5744 217° Southwest 339 390 38,000  Level Salt Lake Center
04:28PM 44.1575 -116.6644 217° Southwest 342 394 38,000  Level Salt Lake Center
04:29PM 44.0842 -116.7428 218° Southwest 346 398 38,000  Level Salt Lake Center
04:30PM 44.0103 -116.8200 217° Southwest 348 400 38,000  Level Salt Lake Center
04:31PM 43.9261 -116.9097 218° Southwest 344 396 38,000  Level Salt Lake Center
04:32PM 43.8528 -116.9853 217° Southwest 343 395 38,000  Level Salt Lake Center
04:33PM 43.7675 -117.0753 217° Southwest 345 397 38,000  Level Salt Lake Center
04:35PM 43.6456 -117.1983 216° Southwest 343 395 38,000  Level Seattle Center
04:36PM 43.5611 -117.2867 217° Southwest 342 394 38,000  Level Seattle Center
04:37PM 43.4881 -117.3611 216° Southwest 342 394 38,000  Level Seattle Center
04:38PM 43.4039 -117.4497 217° Southwest 341 392 38,000  Level Seattle Center
04:39PM 43.3311 -117.5239 217° Southwest 341 392 38,000  Level Seattle Center
04:40PM 43.2583 -117.5983 217° Southwest 340 391 38,000  Level Seattle Center
04:41PM 43.1731 -117.6839 216° Southwest 340 391 38,000  Level Seattle Center
04:42PM 43.1022 -117.7614 219° Southwest 340 391 38,000  Level Seattle Center
04:43PM 43.0300 -117.8358 217° Southwest 339 390 38,000  Level Seattle Center
04:44PM 42.9450 -117.9197 216° Southwest 339 390 38,000  Level Seattle Center
04:45PM 42.8719 -117.9908 216° Southwest 338 389 38,000  Level Seattle Center
04:46PM 42.8017 -118.0667 218° Southwest 336 387 38,000  Level Seattle Center
04:47PM 42.7175 -118.1503 216° Southwest 335 386 38,000  Level Seattle Center
04:48PM 42.6444 -118.2228 216° Southwest 337 388 38,000  Level Seattle Center
04:49PM 42.5617 -118.3067 217° Southwest 335 386 38,000  Level Seattle Center
04:50PM 42.4875 -118.3786 216° Southwest 334 384 38,000  Level Seattle Center
04:51PM 42.4517 -118.4142 216° Southwest 334 384 38,000  Level Salt Lake Center
04:52PM 42.3794 -118.4842 216° Southwest 333 383 38,000  Level Salt Lake Center
04:53PM 42.2956 -118.5672 216° Southwest 334 384 38,000  Level Salt Lake Center
04:54PM 42.2239 -118.6386 216° Southwest 335 386 38,000  Level Salt Lake Center
04:55PM 42.1386 -118.7208 216° Southwest 338 389 38,000  Level Salt Lake Center
04:56PM 42.0661 -118.7911 216° Southwest 336 387 38,000  Level Salt Lake Center
04:57PM 41.9922 -118.8628 216° Southwest 342 394 38,000  Level Salt Lake Center
04:58PM 41.9058 -118.9478 216° Southwest 345 397 38,000  Level Salt Lake Center
04:59PM 41.8319 -119.0178 215° Southwest 341 392 38,000  Level Salt Lake Center
05:00PM 41.7442 -119.1022 216° Southwest 346 398 38,000  Level Salt Lake Center
05:01PM 41.6314 -119.2106 216° Southwest 345 397 38,000  Level Seattle Center
05:02PM 41.5822 -119.2572 215° Southwest 345 397 38,000  Level Salt Lake Center
05:03PM 41.5081 -119.3286 216° Southwest 344 396 38,000  Level Salt Lake Center
05:04PM 41.4328 -119.3994 215° Southwest 346 398 38,000  Level Salt Lake Center
05:05PM 41.3400 -119.4881 216° Southwest 348 400 38,000  Level Seattle Center
05:06PM 41.2456 -119.5772 215° Southwest 347 399 38,000  Level Seattle Center
05:07PM 41.1658 -119.6514 215° Southwest 349 402 38,000  Level Seattle Center
05:08PM 41.0867 -119.7264 216° Southwest 349 402 38,000  Level Seattle Center
05:09PM 41.0072 -119.8019 216° Southwest 351 404 38,000  Level Seattle Center
05:10PM 40.9267 -119.8769 215° Southwest 352 405 38,000  Level Seattle Center
05:11PM 40.8469 -119.9497 215° Southwest 350 403 38,000  Level Seattle Center
05:12PM 40.7683 -120.0236 215° Southwest 349 402 38,000  Level Seattle Center
05:13PM 40.6872 -120.0978 215° Southwest 353 406 38,000  Level Seattle Center
05:14PM 40.6089 -120.1714 216° Southwest 349 402 38,000  Level Seattle Center
05:16PM 40.5272 -120.2453 215° Southwest 354 407 38,000  Level Seattle Center
05:17PM 40.4486 -120.3178 215° Southwest 347 399 38,000  Level Seattle Center
05:18PM 40.3558 -120.4019 215° Southwest 346 398 38,000  Level Seattle Center
05:19PM 40.2756 -120.4728 214° Southwest 347 399 38,000  Level Seattle Center
05:20PM 40.1956 -120.5464 215° Southwest 350 403 38,000  Level Seattle Center
05:21PM 40.1167 -120.6181 215° Southwest 347 399 38,000  Level Seattle Center
05:22PM 40.0364 -120.6903 215° Southwest 349 402 38,000 -600 Level Seattle Center
05:23PM 39.9256 -120.7886 214° Southwest 355 409 36,700 -1,200 Descending Oakland Center
05:24PM 39.8436 -120.8617 214° Southwest 357 411 35,200 -1,500 Descending Oakland Center
05:25PM 39.7625 -120.9336 214° Southwest 353 406 33,700 -1,140 Descending Oakland Center
05:26PM 39.6806 -121.0058 214° Southwest 355 409 32,900 -1,440 Descending Oakland Center
05:27PM 39.5953 -121.0806 214° Southwest 370 426 30,800 -2,100 Descending Oakland Center
05:28PM 39.5047 -121.1633 215° Southwest 372 428 28,700 -2,160 Descending Oakland Center
05:29PM 39.4131 -121.2436 214° Southwest 357 411 26,400 -2,100 Descending Oakland Center
05:30PM 39.3331 -121.3181 216° Southwest 356 410 24,500 -1,980 Descending Oakland Center
05:31PM 39.2533 -121.3931 216° Southwest 355 409 22,400 -2,040 Descending Oakland Center
05:32PM 39.1739 -121.4658 215° Southwest 353 406 20,400 -1,980 Descending Oakland Center
05:33PM 39.0981 -121.5367 216° Southwest 342 394 18,400 -1,980 Descending Oakland Center
05:34PM 39.0239 -121.6028 215° Southwest 329 379 16,400 -1,980 Descending Oakland Center
05:35PM 38.9508 -121.6725 217° Southwest 328 377 14,400 -1,980 Descending Oakland Center
05:36PM 38.8761 -121.7403 215° Southwest 331 381 12,400 -1,200 Descending Oakland Center
05:37PM 38.7933 -121.8183 216° Southwest 313 360 12,000 -240 Descending Oakland Center
05:38PM 38.7225 -121.8822 215° Southwest 312 359 12,000 -540 Level Oakland Center
05:39PM 38.6678 -121.9328 216° Southwest 279 321 10,900 -1,560 Descending Oakland Center
05:40PM 38.6097 -121.9875 216° Southwest 258 297 8,900 -1,980 Descending Oakland Center
05:41PM 38.5611 -122.0564 228° Southwest 265 305 6,900 -1,920 Descending Oakland Center
05:42PM 38.5083 -122.1447 233° Southwest 263 303 5,000 -960 Descending Oakland Center
05:43PM 38.4758 -122.2033 235° Southwest 214 246 5,000  Level Oakland Center
05:44PM 38.4425 -122.2639 235° Southwest 206 237 5,000 -120 Level Oakland Center
05:45PM 38.4089 -122.3222 234° Southwest 205 236 4,800 -300 Descending Oakland Center
05:46PM 38.3617 -122.3567 210° Southwest 198 228 4,500 -180 Descending Oakland Center
05:47PM 38.3197 -122.4006 219° Southwest 195 224 4,500  Level Oakland Center
05:49PM 38.2772 -122.4458 220° Southwest 198 228 4,500  Level Oakland Center
05:50PM 38.2333 -122.4911 219° Southwest 201 231 4,500 -180 Level Oakland Center
05:51PM 38.1839 -122.4856 175° South 183 211 4,200 -180 Descending Oakland Center
05:52PM 38.1689 -122.4344 110° East 163 188 4,200 -660 Level Oakland Center
05:53PM 38.1808 -122.3731 76° East 156 180 2,900 -1,560 Descending Oakland Center
05:54PM 38.1961 -122.3261 67° East 149 171 1,100 -1,800 Descending Oakland Center